Time;durP1;ratioP1;P1;durP2;ratioP2;P2;SDS_P1;SDS_P2;PMS_P1;PMS_P2;Temp;Humidity;BMP_temperature;BMP_pressure;BME280_temperature;BME280_humidity;BME280_pressure;Samples;Min_cycle;Max_cycle;Signal;HPM_P1;HPM_P2
2022/02/08 00:01:54;;;;;;;29.30;4.28;;;;;;;6.01;100.00;102785.44;5286651;28;20546;-77
2022/02/08 00:04:25;;;;;;;25.80;5.43;;;;;;;5.99;100.00;102781.16;5271319;28;20028;-76
2022/02/08 00:06:57;;;;;;;26.70;4.50;;;;;;;6.06;100.00;102786.03;5289175;28;20034;-76
2022/02/08 00:09:28;;;;;;;29.08;4.85;;;;;;;6.07;100.00;102785.09;5289740;28;20338;-76
2022/02/08 00:12:00;;;;;;;29.60;4.05;;;;;;;6.10;100.00;102773.41;5289541;28;20031;-76
2022/02/08 00:14:30;;;;;;;27.67;6.65;;;;;;;6.09;100.00;102771.69;5289528;28;20131;-77
2022/02/08 00:17:01;;;;;;;34.38;4.53;;;;;;;6.12;100.00;102774.16;5289597;28;20028;-77
2022/02/08 00:19:32;;;;;;;19.67;4.15;;;;;;;6.14;100.00;102772.28;5288969;28;20028;-77
2022/02/08 00:22:04;;;;;;;24.95;4.00;;;;;;;6.13;100.00;102778.56;5289238;28;20116;-77
2022/02/08 00:24:35;;;;;;;21.58;4.60;;;;;;;6.11;100.00;102773.28;5289033;28;20042;-77
2022/02/08 00:27:07;;;;;;;28.92;4.43;;;;;;;6.14;100.00;102772.28;5289010;28;20023;-77
2022/02/08 00:29:37;;;;;;;25.35;5.53;;;;;;;6.17;100.00;102780.06;5289538;28;20055;-77
2022/02/08 00:32:09;;;;;;;19.58;4.68;;;;;;;6.12;100.00;102772.34;5288103;28;20053;-77
2022/02/08 00:34:39;;;;;;;26.63;4.90;;;;;;;6.14;100.00;102770.47;5270801;28;20028;-77
2022/02/08 00:37:10;;;;;;;22.42;4.10;;;;;;;6.20;100.00;102774.56;5289015;28;20022;-77
2022/02/08 00:39:42;;;;;;;22.63;4.07;;;;;;;6.16;100.00;102767.69;5281989;28;20026;-77
2022/02/08 00:42:13;;;;;;;22.83;4.45;;;;;;;6.22;100.00;102765.56;5282266;28;20539;-77
2022/02/08 00:47:32;;;;;;;32.72;5.55;;;;;;;6.20;100.00;102774.56;5288882;28;20448;-77
2022/02/08 00:50:08;;;;;;;18.48;3.97;;;;;;;6.18;100.00;102769.34;5270794;28;20023;-77
2022/02/08 00:52:40;;;;;;;28.23;5.13;;;;;;;6.17;100.00;102767.59;5288734;28;20115;-77
2022/02/08 00:55:12;;;;;;;21.90;4.18;;;;;;;6.18;100.00;102766.69;5289721;28;20023;-84
2022/02/08 00:57:42;;;;;;;34.60;6.40;;;;;;;6.16;100.00;102757.91;5272899;28;20031;-82
2022/02/08 01:00:13;;;;;;;32.67;6.35;;;;;;;6.17;100.00;102758.75;5274338;28;20047;-80
2022/02/08 01:02:43;;;;;;;27.25;4.68;;;;;;;6.18;100.00;102765.81;5290954;28;20387;-79
2022/02/08 01:05:15;;;;;;;24.85;5.30;;;;;;;6.15;100.00;102766.00;5273169;28;20016;-79
2022/02/08 01:07:46;;;;;;;24.45;5.70;;;;;;;6.25;100.00;102760.97;5292016;28;20182;-79
2022/02/08 01:10:19;;;;;;;32.22;4.55;;;;;;;6.26;100.00;102752.88;5292361;28;20094;-79
2022/02/08 01:12:50;;;;;;;30.05;5.43;;;;;;;6.28;100.00;102747.47;5288101;28;20384;-79
2022/02/08 01:15:20;;;;;;;35.47;5.57;;;;;;;6.33;100.00;102764.06;5288993;28;20478;-78
2022/02/08 01:17:56;;;;;;;22.77;4.50;;;;;;;6.30;100.00;102758.91;5270864;28;20024;-79
2022/02/08 01:23:13;;;;;;;27.17;4.55;;;;;;;6.35;100.00;102757.66;5288645;28;20521;-78
2022/02/08 01:25:48;;;;;;;23.25;4.13;;;;;;;6.37;100.00;102750.41;5269631;28;20043;-78
2022/02/08 01:28:40;;;;;;;23.40;4.72;;;;;;;6.35;100.00;102755.00;5289042;28;20032;-78
2022/02/08 01:31:13;;;;;;;19.15;3.80;;;;;;;6.40;100.00;102760.91;5286647;28;20625;-78
2022/02/08 01:36:41;;;;;;;28.45;4.10;;;;;;;6.48;100.00;102752.47;5289778;28;20035;-78
2022/02/08 01:39:20;;;;;;;49.05;7.82;;;;;;;6.52;100.00;102756.63;5287108;28;20023;-78
2022/02/08 01:50:14;;;;;;;20.33;4.97;;;;;;;6.68;100.00;102767.25;5290990;28;20027;-78
2022/02/08 01:52:45;;;;;;;16.15;3.83;;;;;;;6.72;100.00;102758.94;5290983;28;20387;-78
2022/02/08 01:55:16;;;;;;;17.67;3.92;;;;;;;6.78;100.00;102756.84;5272204;28;20027;-78
2022/02/08 01:57:47;;;;;;;21.48;4.63;;;;;;;6.80;100.00;102747.81;5274249;28;20031;-78
2022/02/08 02:00:18;;;;;;;18.50;3.53;;;;;;;6.84;100.00;102746.66;5274438;28;20030;-78
2022/02/08 02:02:49;;;;;;;17.00;4.07;;;;;;;6.84;100.00;102737.81;5292105;28;20026;-78
2022/02/08 02:05:20;;;;;;;20.25;4.53;;;;;;;6.81;100.00;102744.19;5292099;28;20015;-78
2022/02/08 02:07:51;;;;;;;20.27;4.65;;;;;;;6.80;100.00;102747.81;5274250;28;20510;-78
2022/02/08 02:10:22;;;;;;;20.40;5.00;;;;;;;6.75;100.00;102747.22;5290553;28;20015;-79
2022/02/08 02:12:57;;;;;;;21.35;4.97;;;;;;;6.74;100.00;102745.53;5289892;28;20020;-79
2022/02/08 02:15:29;;;;;;;25.90;5.45;;;;;;;6.76;100.00;102746.28;5289620;28;20020;-79
2022/02/08 02:17:59;;;;;;;32.80;6.00;;;;;;;6.74;100.00;102737.53;5289042;28;20102;-79
2022/02/08 02:20:32;;;;;;;21.98;5.72;;;;;;;6.79;100.00;102735.41;5271839;28;20419;-79
2022/02/08 02:23:02;;;;;;;27.02;7.25;;;;;;;6.80;100.00;102723.78;5271986;28;20031;-79
2022/02/08 02:25:33;;;;;;;30.17;8.00;;;;;;;6.84;100.00;102727.13;5270574;28;20033;-79
2022/02/08 02:28:05;;;;;;;32.35;7.35;;;;;;;6.88;100.00;102728.66;5289946;28;20020;-79
2022/02/08 02:30:36;;;;;;;21.95;6.93;;;;;;;6.89;100.00;102733.03;5288783;28;20027;-79
2022/02/08 02:33:08;;;;;;;23.35;6.40;;;;;;;6.88;100.00;102736.66;5270036;28;20031;-79
2022/02/08 02:35:38;;;;;;;34.42;8.35;;;;;;;6.93;100.00;102727.41;5272140;28;20029;-79
2022/02/08 02:38:10;;;;;;;28.67;7.68;;;;;;;6.95;100.00;102728.16;5260919;28;20034;-79
2022/02/08 02:40:43;;;;;;;33.33;7.60;;;;;;;6.99;100.00;102732.34;5277698;28;20028;-79
2022/02/08 02:43:14;;;;;;;28.90;7.50;;;;;;;7.03;100.00;102732.16;5272880;28;20039;-79
2022/02/08 02:45:52;;;;;;;25.63;8.27;;;;;;;7.02;100.00;102744.63;5291527;28;20047;-79
2022/02/08 02:48:22;;;;;;;31.98;7.93;;;;;;;7.05;100.00;102743.59;5274007;28;20395;-79
2022/02/08 02:50:54;;;;;;;23.48;6.95;;;;;;;7.06;100.00;102742.63;5291328;28;20118;-79
2022/02/08 02:53:26;;;;;;;39.20;7.95;;;;;;;7.07;100.00;102747.00;5296306;28;20324;-79
2022/02/08 02:56:05;;;;;;;35.60;7.38;;;;;;;7.08;100.00;102736.25;5260950;28;20100;-79
2022/02/08 02:58:38;;;;;;;29.42;8.00;;;;;;;6.99;100.00;102732.34;5273460;28;20048;-78
2022/02/08 03:01:25;;;;;;;33.58;7.85;;;;;;;6.97;100.00;102739.59;5290960;28;20499;-78
2022/02/08 03:04:08;;;;;;;29.58;6.90;;;;;;;6.95;100.00;102737.97;5290899;28;20054;-79
2022/02/08 03:20:45;;;;;;;30.35;9.10;;;;;;;6.94;100.00;102728.28;5276430;28;20030;-76
2022/02/08 03:23:16;;;;;;;29.42;8.48;;;;;;;6.97;100.00;102736.91;5285812;28;20038;-76
2022/02/08 03:25:47;;;;;;;33.83;8.85;;;;;;;6.93;100.00;102731.91;5267399;28;20020;-76
2022/02/08 03:28:17;;;;;;;28.13;8.05;;;;;;;6.92;100.00;102735.50;5286320;28;20028;-76
2022/02/08 03:30:48;;;;;;;34.90;9.32;;;;;;;6.91;100.00;102731.13;5286003;28;20030;-76
2022/02/08 03:33:19;;;;;;;31.83;8.65;;;;;;;6.91;100.00;102733.78;5285422;28;20046;-77
2022/02/08 03:35:50;;;;;;;31.92;9.63;;;;;;;6.90;100.00;102738.28;5284841;28;20359;-77
2022/02/08 03:38:29;;;;;;;33.15;9.40;;;;;;;6.87;100.00;102725.09;5286093;28;20483;-76
2022/02/08 03:41:01;;;;;;;37.75;9.65;;;;;;;6.87;100.00;102730.44;5271560;28;20030;-77
2022/02/08 03:43:33;;;;;;;30.27;8.60;;;;;;;6.88;100.00;102742.00;5285623;28;20034;-77
2022/02/08 03:46:07;;;;;;;29.45;10.18;;;;;;;6.87;100.00;102738.44;5285474;28;20024;-77
2022/02/08 03:48:40;;;;;;;27.73;10.20;;;;;;;6.87;100.00;102735.78;5285837;28;20016;-77
2022/02/08 03:51:14;;;;;;;37.90;10.05;;;;;;;6.88;100.00;102736.66;5285804;28;20019;-77
2022/02/08 03:53:47;;;;;;;31.40;10.25;;;;;;;6.88;100.00;102734.00;5285465;28;20024;-77
2022/02/08 03:56:21;;;;;;;42.63;10.77;;;;;;;6.86;100.00;102735.88;5285421;28;20019;-76
2022/02/08 03:58:55;;;;;;;41.85;10.98;;;;;;;6.88;100.00;102744.66;5285589;28;20024;-77
2022/02/08 04:01:50;;;;;;;38.67;11.88;;;;;;;6.89;100.00;102749.06;5285420;28;20541;-77
2022/02/08 04:10:00;;;;;;;37.80;10.32;;;;;;;6.95;100.00;102748.66;5285627;28;20085;-77
2022/02/08 04:12:41;;;;;;;34.22;11.25;;;;;;;7.04;100.00;102758.75;5285271;28;20023;-76
2022/02/08 04:15:27;;;;;;;36.03;10.52;;;;;;;7.09;100.00;102764.66;5285526;28;20044;-77
2022/02/08 04:37:49;;;;;;;30.35;10.30;;;;;;;7.16;100.00;102741.09;5285773;28;20509;-76
2022/02/08 04:43:10;;;;;;;27.08;10.48;;;;;;;7.14;100.00;102746.53;5271310;28;20278;-77
2022/02/08 04:45:48;;;;;;;44.03;17.95;;;;;;;7.18;100.00;102757.88;5284911;28;20072;-77
2022/02/08 04:48:28;;;;;;;46.00;23.85;;;;;;;7.18;100.00;102760.56;5277250;28;20179;-77
2022/02/08 04:51:11;;;;;;;64.88;28.85;;;;;;;7.23;100.00;102766.47;5289363;28;20027;-77
2022/02/08 04:53:50;;;;;;;45.65;20.67;;;;;;;7.21;100.00;102755.00;5289456;28;20016;-77
2022/02/08 04:56:33;;;;;;;35.17;13.68;;;;;;;7.18;100.00;102752.56;5288706;28;20020;-77
2022/02/08 05:41:34;;;;;;;31.02;11.13;;;;;;;7.63;100.00;102716.66;5274369;28;20028;-77
2022/02/08 05:43:48;;;;;;;33.25;11.48;;;;;;;7.65;100.00;102716.56;5287969;28;20479;-77
2022/02/08 05:49:09;;;;;;;29.25;10.80;;;;;;;7.73;100.00;102727.56;5287550;28;20034;-76
2022/02/08 05:52:22;;;;;;;30.02;10.88;;;;;;;7.70;100.00;102730.47;5287356;28;20020;-76
2022/02/08 05:54:30;;;;;;;24.95;11.43;;;;;;;7.73;100.00;102731.13;5275035;28;20053;-77
2022/02/08 05:57:00;;;;;;;32.83;12.40;;;;;;;7.76;100.00;102733.56;5287527;28;20019;-76
2022/02/08 05:59:31;;;;;;;25.70;10.43;;;;;;;7.75;100.00;102731.00;5287115;28;20418;-76
2022/02/08 06:02:01;;;;;;;28.30;12.13;;;;;;;7.79;100.00;102727.19;5287451;28;20038;-76
2022/02/08 06:04:36;;;;;;;31.42;14.75;;;;;;;7.82;100.00;102728.78;5287456;28;20474;-76
2022/02/08 06:07:07;;;;;;;29.40;13.32;;;;;;;7.87;100.00;102740.88;5287134;28;20031;-76
2022/02/08 06:09:37;;;;;;;27.90;11.80;;;;;;;7.88;100.00;102739.94;5287703;28;20029;-76
2022/02/08 06:12:08;;;;;;;42.17;17.83;;;;;;;7.87;100.00;102742.69;5268961;28;20053;-76
2022/02/08 06:14:42;;;;;;;39.00;13.50;;;;;;;7.87;100.00;102740.00;5288942;28;20016;-79
2022/02/08 06:17:12;;;;;;;22.50;9.20;;;;;;;7.89;100.00;102746.13;5289614;28;20059;-79
2022/02/08 06:19:43;;;;;;;32.90;9.82;;;;;;;7.90;100.00;102740.69;5271930;28;20483;-80
2022/02/08 06:22:13;;;;;;;26.95;12.02;;;;;;;7.90;100.00;102742.50;5271903;28;20405;-81
2022/02/08 06:24:43;;;;;;;27.60;9.40;;;;;;;7.96;100.00;102750.94;5291386;28;20051;-81
2022/02/08 06:27:14;;;;;;;26.58;10.02;;;;;;;8.01;100.00;102734.59;5272307;28;20023;-79
2022/02/08 06:29:44;;;;;;;21.38;9.02;;;;;;;8.00;100.00;102746.25;5291676;28;20030;-79
2022/02/08 06:32:15;;;;;;;17.77;8.05;;;;;;;8.00;100.00;102749.78;5289141;28;20123;-78
2022/02/08 06:34:45;;;;;;;25.08;11.85;;;;;;;8.03;100.00;102754.94;5292592;28;20019;-83
2022/02/08 06:37:19;;;;;;;34.13;12.85;;;;;;;8.09;100.00;102760.84;5291843;28;20483;-77
2022/02/08 06:39:49;;;;;;;18.92;8.48;;;;;;;8.05;100.00;102753.00;5280213;28;20024;-79
2022/02/08 06:42:20;;;;;;;20.25;8.60;;;;;;;8.05;100.00;102761.03;5285415;28;20026;-83
2022/02/08 06:44:50;;;;;;;25.30;8.57;;;;;;;8.07;100.00;102765.41;5272709;28;20080;-81
2022/02/08 06:47:21;;;;;;;22.88;8.40;;;;;;;8.04;100.00;102764.66;5259130;28;20122;-83
2022/02/08 06:49:52;;;;;;;23.55;8.93;;;;;;;8.09;100.00;102774.19;5292906;28;20077;-81
2022/02/08 06:52:23;;;;;;;24.52;10.23;;;;;;;8.13;100.00;102768.50;5287306;28;20020;-77
2022/02/08 06:54:53;;;;;;;27.10;13.43;;;;;;;8.16;100.00;102772.81;5271499;28;20147;-77
2022/02/08 06:57:25;;;;;;;21.10;8.48;;;;;;;8.17;100.00;102782.53;5292988;28;20031;-81
2022/02/08 07:00:01;;;;;;;20.92;9.45;;;;;;;8.20;100.00;102780.53;5273327;28;20627;-79
2022/02/08 07:02:32;;;;;;;30.55;14.65;;;;;;;8.21;100.00;102781.38;5281858;28;20074;-79
2022/02/08 07:05:02;;;;;;;26.42;8.77;;;;;;;8.20;100.00;102777.00;5292656;28;20027;-79
2022/02/08 07:07:33;;;;;;;19.60;8.13;;;;;;;8.24;100.00;102786.53;5275195;28;20027;-79
2022/02/08 07:10:04;;;;;;;23.85;8.43;;;;;;;8.21;100.00;102787.56;5293012;28;20019;-79
2022/02/08 07:12:34;;;;;;;26.25;9.35;;;;;;;8.23;100.00;102785.69;5273854;28;20375;-79
2022/02/08 07:15:10;;;;;;;22.38;7.55;;;;;;;8.24;100.00;102784.72;5292518;28;20541;-79
2022/02/08 07:17:41;;;;;;;22.30;7.35;;;;;;;8.22;100.00;102791.97;5254762;28;20495;-79
2022/02/08 07:20:12;;;;;;;29.95;8.95;;;;;;;8.21;100.00;102787.56;5291853;28;20088;-79
2022/02/08 07:22:43;;;;;;;18.17;8.35;;;;;;;8.21;100.00;102784.06;5274575;28;20520;-79
2022/02/08 07:25:14;;;;;;;23.65;8.63;;;;;;;8.15;100.00;102782.66;5292158;28;20043;-79
2022/02/08 07:27:44;;;;;;;28.02;8.75;;;;;;;8.12;100.00;102792.69;5293223;28;20030;-79
2022/02/08 07:30:15;;;;;;;22.63;8.90;;;;;;;8.11;100.00;102790.97;5292611;28;20505;-79
2022/02/08 07:32:47;;;;;;;22.73;8.80;;;;;;;8.13;100.00;102795.25;5290941;28;20025;-80
2022/02/08 07:38:11;;;;;;;21.65;8.35;;;;;;;8.16;100.00;102804.91;5292174;28;20034;-80
2022/02/08 07:41:35;;;;;;;20.58;9.70;;;;;;;8.19;100.00;102804.69;5276077;28;20028;-79
2022/02/08 07:43:32;;;;;;;21.33;9.15;;;;;;;8.22;100.00;102809.81;5287361;28;20031;-80
2022/02/08 07:46:03;;;;;;;19.05;8.73;;;;;;;8.22;100.00;102804.47;5286260;28;20482;-79
2022/02/08 07:48:33;;;;;;;20.10;8.73;;;;;;;8.27;100.00;102807.69;5268138;28;20031;-80
2022/02/08 07:51:04;;;;;;;22.48;8.32;;;;;;;8.24;100.00;102802.56;5268255;28;20202;-80
2022/02/08 07:53:35;;;;;;;23.88;9.20;;;;;;;8.28;100.00;102806.72;5268125;28;20054;-80
2022/02/08 07:56:05;;;;;;;20.17;9.15;;;;;;;8.29;100.00;102805.78;5268985;28;20023;-79
2022/02/08 07:58:35;;;;;;;27.45;9.43;;;;;;;8.28;100.00;102801.38;5270001;28;20107;-79
2022/02/08 08:01:08;;;;;;;21.38;8.50;;;;;;;8.29;100.00;102795.09;5288574;28;20023;-79
2022/02/08 08:03:41;;;;;;;21.85;8.88;;;;;;;8.35;100.00;102794.69;5271559;28;20047;-79
2022/02/08 08:06:14;;;;;;;27.23;9.23;;;;;;;8.43;100.00;102796.84;5276041;28;20152;-79
2022/02/08 08:08:46;;;;;;;19.40;7.85;;;;;;;8.41;100.00;102798.78;5292044;28;20020;-81
2022/02/08 08:11:20;;;;;;;20.63;8.95;;;;;;;8.50;100.00;102796.34;5292073;28;20365;-81
2022/02/08 08:16:31;;;;;;;16.15;6.38;;;;;;;8.51;100.00;102787.34;5287153;28;20016;-81
2022/02/08 08:19:08;;;;;;;20.35;6.85;;;;;;;8.55;100.00;102796.88;5268458;28;20024;-81
2022/02/08 08:21:39;;;;;;;15.48;6.90;;;;;;;8.58;100.00;102795.78;5287349;28;20020;-81
2022/02/08 08:24:10;;;;;;;18.52;7.40;;;;;;;8.64;100.00;102806.09;5290457;28;20028;-81
2022/02/08 08:26:40;;;;;;;16.90;5.40;;;;;;;8.66;100.00;102804.16;5291375;28;20395;-81
2022/02/08 08:29:11;;;;;;;13.77;5.47;;;;;;;8.69;100.00;102808.44;5272879;28;20034;-81
2022/02/08 08:31:41;;;;;;;9.10;4.55;;;;;;;8.65;100.00;102813.16;5259840;28;20024;-81
2022/02/08 08:34:13;;;;;;;14.82;4.75;;;;;;;8.69;100.00;102809.31;5291213;28;20421;-81
2022/02/08 08:36:46;;;;;;;17.70;4.55;;;;;;;8.71;100.00;102804.69;5274228;28;20030;-81
2022/02/08 08:39:23;;;;;;;16.20;4.68;;;;;;;8.72;100.00;102813.56;5288142;28;20034;-84
2022/02/08 08:42:14;;;;;;;11.90;4.00;;;;;;;8.72;100.00;102810.91;5281465;28;20019;-80
2022/02/08 08:53:10;;;;;;;11.68;4.18;;;;;;;8.91;100.00;102823.84;5277066;28;20059;-79
2022/02/08 08:55:41;;;;;;;7.82;3.97;;;;;;;8.95;100.00;102820.00;5274311;28;20022;-79
2022/02/08 08:58:11;;;;;;;12.05;3.67;;;;;;;9.02;100.00;102823.97;5274924;28;20030;-79
2022/02/08 09:00:42;;;;;;;9.85;3.90;;;;;;;9.01;100.00;102831.13;5274855;28;20039;-79
2022/02/08 09:03:13;;;;;;;20.60;7.20;;;;;;;8.98;100.00;102820.63;5274101;28;20112;-79
2022/02/08 09:05:44;;;;;;;14.00;4.85;;;;;;;9.05;100.00;102829.97;5255017;28;20390;-80
2022/02/08 09:08:14;;;;;;;11.30;3.33;;;;;;;9.08;100.00;102831.56;5289201;28;20047;-79
2022/02/08 09:10:53;;;;;;;10.25;2.92;;;;;;;9.18;100.00;102837.13;5270659;28;20514;-79
2022/02/08 09:13:30;;;;;;;9.93;3.10;;;;;;;9.16;100.00;102842.59;5268418;28;20031;-80
2022/02/08 09:16:09;;;;;;;9.70;2.90;;;;;;;9.22;100.00;102849.31;5270864;28;20048;-83
2022/02/08 09:19:00;;;;;;;9.52;2.88;;;;;;;9.26;100.00;102842.78;5270499;28;20058;-79
2022/02/08 09:27:06;;;;;;;7.30;3.47;;;;;;;9.40;100.00;102844.50;5289247;28;20024;-79
2022/02/08 09:29:50;;;;;;;14.93;3.35;;;;;;;9.43;100.00;102846.94;5273374;28;20106;-79
2022/02/08 09:32:32;;;;;;;10.98;2.85;;;;;;;9.36;100.00;102838.50;5286923;28;20122;-79
2022/02/08 09:35:02;;;;;;;15.95;3.03;;;;;;;9.43;100.00;102839.75;5275504;28;20026;-79
2022/02/08 09:37:33;;;;;;;16.38;4.25;;;;;;;9.50;100.00;102842.88;5248093;28;20475;-79
2022/02/08 09:40:06;;;;;;;14.90;3.50;;;;;;;9.50;100.00;102833.00;5287944;28;20413;-78
2022/02/08 09:42:40;;;;;;;8.45;3.00;;;;;;;9.43;100.00;102837.06;5282112;28;20035;-78
2022/02/08 09:45:15;;;;;;;11.48;3.72;;;;;;;9.45;100.00;102839.66;5287493;28;20019;-78
2022/02/08 09:48:06;;;;;;;;;;;;;;;9.46;100.00;102842.22;5270930;28;20445;-79
2022/02/08 09:50:51;;;;;;;16.73;2.92;;;;;;;9.52;100.00;102835.56;5277965;28;20374;-80
2022/02/08 09:53:30;;;;;;;16.33;7.20;;;;;;;9.57;100.00;102842.28;5288123;28;20023;-81
2022/02/08 09:56:03;;;;;;;19.88;7.25;;;;;;;9.59;100.00;102842.22;5269409;28;20012;-81
2022/02/08 09:58:34;;;;;;;17.85;6.30;;;;;;;9.64;100.00;102850.78;5286318;28;20406;-81
2022/02/08 10:01:08;;;;;;;22.55;4.97;;;;;;;9.77;100.00;102840.00;5275048;28;20099;-79
2022/02/08 10:03:58;;;;;;;31.00;8.63;;;;;;;9.78;100.00;102847.06;5275850;28;20024;-81
2022/02/08 10:06:29;;;;;;;20.83;5.70;;;;;;;9.76;100.00;102841.81;5266518;28;20028;-81
2022/02/08 10:09:04;;;;;;;19.42;4.75;;;;;;;9.82;100.00;102843.19;5266504;28;20055;-81
2022/02/08 10:11:50;;;;;;;17.75;5.60;;;;;;;9.86;100.00;102840.19;5249217;28;20095;-79
2022/02/08 10:14:25;;;;;;;12.65;4.80;;;;;;;9.89;100.00;102839.09;5278771;28;20019;-79
2022/02/08 10:22:35;;;;;;;16.92;5.32;;;;;;;10.15;100.00;102849.72;5289301;28;20547;-79
2022/02/08 10:25:08;;;;;;;18.75;5.15;;;;;;;10.29;100.00;102846.88;5281483;28;20110;-79
2022/02/08 10:27:43;;;;;;;16.10;5.25;;;;;;;10.36;100.00;102853.50;5268131;28;20491;-82
2022/02/08 10:38:42;;;;;;;13.30;3.50;;;;;;;10.33;100.00;102840.31;5286801;28;20429;-79
2022/02/08 10:41:26;;;;;;;15.43;6.32;;;;;;;10.28;100.00;102846.00;5273338;28;20027;-80
2022/02/08 10:44:16;;;;;;;15.17;8.00;;;;;;;10.30;100.00;102843.25;5280924;28;20073;-80
2022/02/08 10:46:46;;;;;;;15.23;4.15;;;;;;;10.35;100.00;102841.91;5286206;28;20019;-79
2022/02/08 10:49:16;;;;;;;12.85;3.08;;;;;;;10.35;100.00;102831.19;5291267;28;20030;-80
2022/02/08 10:51:53;;;;;;;10.20;2.90;;;;;;;10.43;100.00;102829.72;5280343;28;20067;-83
2022/02/08 10:54:33;;;;;;;;;;;;;;;10.48;100.00;102841.81;5250711;28;20023;-83
2022/02/08 10:57:11;;;;;;;7.10;2.70;;;;;;;10.57;100.00;102833.06;5280086;28;19927;-83
2022/02/08 10:59:51;;;;;;;13.45;3.47;;;;;;;10.62;100.00;102828.19;5269900;28;20019;-83
2022/02/08 11:05:21;;;;;;;8.85;2.88;;;;;;;10.65;100.00;102823.59;5301808;28;20019;-83
2022/02/08 11:11:07;;;;;;;5.22;2.38;;;;;;;10.76;100.00;102813.72;5269611;28;20240;-83
2022/02/08 11:13:55;;;;;;;4.65;1.55;;;;;;;10.91;100.00;102813.50;5283609;28;20072;-83
2022/02/08 11:16:32;;;;;;;8.85;1.80;;;;;;;11.06;100.00;102809.59;5283497;28;20031;-83
2022/02/08 11:19:26;;;;;;;10.88;1.83;;;;;;;11.13;100.00;102798.22;5277812;28;20024;-81
2022/02/08 11:24:50;;;;;;;4.65;1.30;;;;;;;11.15;100.00;102796.28;5276318;28;20035;-83
2022/02/08 11:27:20;;;;;;;6.50;1.83;;;;;;;11.22;100.00;102798.47;5262580;28;20024;-83
2022/02/08 11:30:15;;;;;;;4.22;1.67;;;;;;;11.24;100.00;102799.19;5276538;28;20026;-83
2022/02/08 11:49:41;;;;;;;16.83;6.72;;;;;;;11.40;100.00;102797.00;5289756;28;20062;-81
2022/02/08 11:52:25;;;;;;;24.50;7.97;;;;;;;11.35;100.00;102781.25;5294286;28;20093;-82
2022/02/08 12:00:41;;;;;;;10.02;2.63;;;;;;;11.37;100.00;102797.25;5295384;28;20039;-83
2022/02/08 12:03:40;;;;;;;15.50;5.43;;;;;;;11.31;100.00;102797.75;5279014;28;20347;-82
2022/02/08 12:09:30;;;;;;;20.35;8.63;;;;;;;11.33;100.00;102790.41;5283437;28;20050;-84
2022/02/08 12:50:09;;;;;;;7.10;1.30;;;;;;;11.00;100.00;102786.78;5295525;28;20019;-85
2022/02/08 12:53:32;;;;;;;5.05;1.25;;;;;;;10.88;100.00;102772.47;5294866;28;20019;-85
2022/02/08 12:55:59;;;;;;;7.40;1.83;;;;;;;10.95;100.00;102764.78;5279475;28;20020;-85
2022/02/08 14:05:55;;;;;;;4.43;1.30;;;;;;;11.24;100.00;102762.44;5280124;28;20418;-81
2022/02/08 14:11:37;;;;;;;35.38;25.05;;;;;;;11.40;100.00;102764.75;5279013;28;20031;-81
2022/02/08 14:14:14;;;;;;;47.58;30.92;;;;;;;11.43;100.00;102767.19;5262508;28;20115;-81
2022/02/08 14:17:12;;;;;;;10.07;2.90;;;;;;;11.40;100.00;102762.91;5277822;28;20072;-82
2022/02/08 14:19:41;;;;;;;11.82;4.18;;;;;;;11.40;100.00;102770.13;5277336;28;20440;-82
2022/02/08 14:25:17;;;;;;;7.68;4.07;;;;;;;11.50;100.00;102752.28;5278266;28;20046;-82
2022/02/08 15:09:58;;;;;;;9.07;1.70;;;;;;;11.02;100.00;102787.50;5281644;28;20550;-80
2022/02/08 15:12:33;;;;;;;3.20;1.02;;;;;;;10.91;100.00;102792.00;5263870;28;20019;-80
2022/02/08 15:15:15;;;;;;;5.28;0.90;;;;;;;10.73;100.00;102796.97;5247536;28;20062;-81
2022/02/08 15:17:46;;;;;;;2.97;0.80;;;;;;;10.59;100.00;102795.38;5276726;28;20024;-81
2022/02/08 15:20:16;;;;;;;76.75;23.00;;;;;;;10.43;100.00;102803.75;5277405;28;20410;-81
2022/02/08 15:22:46;;;;;;;4.22;2.25;;;;;;;10.28;100.00;102802.25;5259037;28;20099;-80
2022/02/08 15:25:17;;;;;;;20.02;7.47;;;;;;;10.16;100.00;102801.31;5242355;28;20107;-81
2022/02/08 15:27:48;;;;;;;4.60;2.88;;;;;;;10.12;100.00;102808.72;5258244;28;20067;-81
2022/02/08 15:30:18;;;;;;;4.63;1.50;;;;;;;10.07;100.00;102802.00;5276228;28;20087;-81
2022/02/08 15:32:49;;;;;;;8.02;5.65;;;;;;;10.03;100.00;102804.06;5257529;28;20066;-81
2022/02/08 15:35:20;;;;;;;4.57;3.15;;;;;;;10.00;100.00;102806.13;5257764;28;20024;-81
2022/02/08 15:37:51;;;;;;;18.45;8.85;;;;;;;9.95;100.00;102805.63;5276044;28;20022;-81
2022/02/08 15:40:24;;;;;;;3.90;1.98;;;;;;;9.94;100.00;102807.44;5276014;28;20027;-81
2022/02/08 15:42:54;;;;;;;5.80;1.98;;;;;;;9.96;100.00;102805.50;5258094;28;20027;-80
2022/02/08 15:45:30;;;;;;;4.57;1.10;;;;;;;9.97;100.00;102796.47;5239588;28;20031;-81
2022/02/08 15:48:01;;;;;;;6.63;2.30;;;;;;;9.95;100.00;102810.97;5257744;28;20453;-81
2022/02/08 15:50:45;;;;;;;7.50;1.52;;;;;;;9.95;100.00;102806.47;5256228;28;20103;-82
2022/02/08 16:07:01;;;;;;;3.88;1.50;;;;;;;9.80;100.00;102796.88;5287605;28;20370;-80
2022/02/08 16:09:39;;;;;;;8.40;1.88;;;;;;;9.74;100.00;102791.97;5281841;28;20031;-80
2022/02/08 16:23:51;;;;;;;9.90;1.75;;;;;;;9.71;100.00;102805.59;5287866;28;20107;-80
2022/02/08 16:54:09;;;;;;;14.43;2.72;;;;;;;9.62;100.00;102819.69;5291338;28;20059;-81
2022/02/08 16:59:37;;;;;;;6.85;1.95;;;;;;;9.50;100.00;102818.75;5281377;28;20157;-79
2022/02/08 17:02:09;;;;;;;6.22;2.25;;;;;;;9.50;100.00;102827.66;5273153;28;20530;-80
2022/02/08 17:04:39;;;;;;;3.20;1.55;;;;;;;9.47;100.00;102825.19;5268143;28;20487;-78
2022/02/08 17:07:10;;;;;;;7.97;1.70;;;;;;;9.48;100.00;102826.03;5250701;28;20020;-78
2022/02/08 17:12:53;;;;;;;8.10;2.35;;;;;;;9.45;100.00;102834.31;5247948;28;20386;-78
2022/02/08 17:15:43;;;;;;;3.00;1.70;;;;;;;9.36;100.00;102827.78;5288865;28;20111;-78
2022/02/08 17:36:03;;;;;;;7.22;2.10;;;;;;;9.24;100.00;102842.06;5287688;28;20028;-78
2022/02/08 17:46:36;;;;;;;10.55;3.47;;;;;;;9.24;100.00;102821.50;5272668;28;20501;-78
2022/02/08 17:49:07;;;;;;;20.52;10.82;;;;;;;9.28;100.00;102817.59;5286065;28;20031;-78
2022/02/08 17:51:37;;;;;;;3.95;1.95;;;;;;;9.23;100.00;102801.00;5276390;28;20031;-78
2022/02/08 17:54:08;;;;;;;13.60;5.30;;;;;;;9.24;100.00;102808.09;5268639;28;20464;-78
2022/02/08 17:56:38;;;;;;;6.25;2.88;;;;;;;9.24;100.00;102808.09;5286128;28;20043;-78
2022/02/08 17:59:09;;;;;;;8.23;2.95;;;;;;;9.27;100.00;102809.69;5269053;28;20024;-78
2022/02/08 18:01:40;;;;;;;7.53;2.45;;;;;;;9.31;100.00;102817.38;5252006;28;20445;-78
2022/02/08 18:04:12;;;;;;;10.13;2.25;;;;;;;9.31;100.00;102824.56;5287490;28;20084;-78
2022/02/08 18:06:43;;;;;;;8.73;2.45;;;;;;;9.27;100.00;102826.59;5287103;28;20605;-78
2022/02/08 18:09:17;;;;;;;3.78;2.13;;;;;;;9.32;100.00;102828.97;5287340;28;20028;-78
2022/02/08 18:11:47;;;;;;;14.68;2.05;;;;;;;9.40;100.00;102831.09;5286846;28;20505;-78
2022/02/08 18:14:20;;;;;;;9.82;1.83;;;;;;;9.39;100.00;102827.56;5286858;28;20035;-78
2022/02/08 18:17:03;;;;;;;5.10;1.88;;;;;;;9.41;100.00;102822.09;5287007;28;20106;-78
2022/02/08 18:19:38;;;;;;;5.72;2.63;;;;;;;9.41;100.00;102827.44;5254685;28;20042;-78
2022/02/08 18:24:58;;;;;;;6.90;3.20;;;;;;;9.34;100.00;102829.72;5286218;28;20023;-78
2022/02/08 18:55:29;;;;;;;12.20;4.30;;;;;;;9.20;100.00;102830.69;5285894;28;20031;-78
2022/02/08 19:12:43;;;;;;;7.28;3.65;;;;;;;9.19;100.00;102806.72;5286957;28;20407;-81
2022/02/08 19:23:37;;;;;;;13.85;5.22;;;;;;;9.22;100.00;102814.50;5286423;28;20077;-81
2022/02/08 19:26:08;;;;;;;7.30;3.38;;;;;;;9.22;100.00;102827.91;5268484;28;20024;-81
2022/02/08 19:28:38;;;;;;;9.88;7.28;;;;;;;9.25;100.00;102827.69;5286475;28;20030;-81
2022/02/08 19:31:08;;;;;;;12.57;6.55;;;;;;;9.27;100.00;102829.28;5262239;28;20048;-81
2022/02/08 19:33:39;;;;;;;16.52;11.98;;;;;;;9.30;100.00;102822.88;5278084;28;20111;-81